sensor_id;sensor_type;location;lat;lon;timestamp;P1;durP1;ratioP1;P2;durP2;ratioP2
76548;SDS011;65391;52.068;4.542;2023-01-31T00:00:03;14.6;;;2.4;;
76548;SDS011;65391;52.068;4.542;2023-01-31T00:02:29;14.6;;;2.4;;
76548;SDS011;65391;52.068;4.542;2023-01-31T00:04:53;14.6;;;2.4;;
76548;SDS011;65391;52.068;4.542;2023-01-31T00:07:18;16.4;;;4.4;;
76548;SDS011;65391;52.068;4.542;2023-01-31T00:09:43;16.4;;;4.4;;
76548;SDS011;65391;52.068;4.542;2023-01-31T00:12:08;16.4;;;4.4;;
76548;SDS011;65391;52.068;4.542;2023-01-31T00:14:33;16.4;;;4.4;;
76548;SDS011;65391;52.068;4.542;2023-01-31T00:16:58;15.7;;;2.7;;
76548;SDS011;65391;52.068;4.542;2023-01-31T00:19:23;15.7;;;2.7;;
76548;SDS011;65391;52.068;4.542;2023-01-31T00:21:48;15.7;;;2.7;;
76548;SDS011;65391;52.068;4.542;2023-01-31T00:24:13;14.6;;;3.1;;
76548;SDS011;65391;52.068;4.542;2023-01-31T00:26:38;14.6;;;3.1;;
76548;SDS011;65391;52.068;4.542;2023-01-31T00:29:04;14.6;;;3.1;;
76548;SDS011;65391;52.068;4.542;2023-01-31T00:31:30;14.6;;;3.1;;
76548;SDS011;65391;52.068;4.542;2023-01-31T00:33:53;16;;;3.6;;
76548;SDS011;65391;52.068;4.542;2023-01-31T00:36:20;16;;;3.6;;
76548;SDS011;65391;52.068;4.542;2023-01-31T00:38:43;16;;;3.6;;
76548;SDS011;65391;52.068;4.542;2023-01-31T00:41:08;16;;;3.6;;
76548;SDS011;65391;52.068;4.542;2023-01-31T00:43:33;13.5;;;2.7;;
76548;SDS011;65391;52.068;4.542;2023-01-31T00:45:58;13.5;;;2.7;;
76548;SDS011;65391;52.068;4.542;2023-01-31T00:48:23;13.5;;;2.7;;
76548;SDS011;65391;52.068;4.542;2023-01-31T00:50:48;13.5;;;2.7;;
76548;SDS011;65391;52.068;4.542;2023-01-31T00:53:13;15.2;;;2.7;;
76548;SDS011;65391;52.068;4.542;2023-01-31T00:55:38;15.2;;;2.7;;
76548;SDS011;65391;52.068;4.542;2023-01-31T00:58:03;15.2;;;2.7;;
76548;SDS011;65391;52.068;4.542;2023-01-31T01:00:28;15.2;;;2.7;;
76548;SDS011;65391;52.068;4.542;2023-01-31T01:02:53;13.8;;;2.6;;
76548;SDS011;65391;52.068;4.542;2023-01-31T01:05:18;13.8;;;2.6;;
76548;SDS011;65391;52.068;4.542;2023-01-31T01:07:43;13.8;;;2.6;;
76548;SDS011;65391;52.068;4.542;2023-01-31T01:10:09;13.8;;;2.6;;
76548;SDS011;65391;52.068;4.542;2023-01-31T01:12:33;15.5;;;2.7;;
76548;SDS011;65391;52.068;4.542;2023-01-31T01:14:58;15.5;;;2.7;;
76548;SDS011;65391;52.068;4.542;2023-01-31T01:17:23;15.5;;;2.7;;
76548;SDS011;65391;52.068;4.542;2023-01-31T01:19:48;15.5;;;2.7;;
76548;SDS011;65391;52.068;4.542;2023-01-31T01:22:13;14;;;3.3;;
76548;SDS011;65391;52.068;4.542;2023-01-31T01:24:38;14;;;3.3;;
76548;SDS011;65391;52.068;4.542;2023-01-31T01:27:03;14;;;3.3;;
76548;SDS011;65391;52.068;4.542;2023-01-31T01:29:28;14;;;3.3;;
76548;SDS011;65391;52.068;4.542;2023-01-31T01:31:53;14;;;3.3;;
76548;SDS011;65391;52.068;4.542;2023-01-31T01:34:18;14.8;;;4.1;;
76548;SDS011;65391;52.068;4.542;2023-01-31T01:36:43;14.8;;;4.1;;
76548;SDS011;65391;52.068;4.542;2023-01-31T01:39:09;14.8;;;4.1;;
76548;SDS011;65391;52.068;4.542;2023-01-31T01:41:33;14.8;;;4.1;;
76548;SDS011;65391;52.068;4.542;2023-01-31T01:43:58;13.3;;;2.5;;
76548;SDS011;65391;52.068;4.542;2023-01-31T01:46:25;13.3;;;2.5;;
76548;SDS011;65391;52.068;4.542;2023-01-31T01:48:50;13.3;;;2.5;;
76548;SDS011;65391;52.068;4.542;2023-01-31T01:51:13;13.3;;;2.5;;
76548;SDS011;65391;52.068;4.542;2023-01-31T01:53:39;13.8;;;3.3;;
76548;SDS011;65391;52.068;4.542;2023-01-31T01:56:06;13.8;;;3.3;;
76548;SDS011;65391;52.068;4.542;2023-01-31T01:58:30;13.8;;;3.3;;
76548;SDS011;65391;52.068;4.542;2023-01-31T02:00:53;13.8;;;3.3;;
76548;SDS011;65391;52.068;4.542;2023-01-31T02:03:18;15.1;;;3.6;;
76548;SDS011;65391;52.068;4.542;2023-01-31T02:05:45;15.1;;;3.6;;
76548;SDS011;65391;52.068;4.542;2023-01-31T02:08:08;15.1;;;3.6;;
76548;SDS011;65391;52.068;4.542;2023-01-31T02:10:36;15.1;;;3.6;;
76548;SDS011;65391;52.068;4.542;2023-01-31T02:12:58;13.6;;;3.5;;
76548;SDS011;65391;52.068;4.542;2023-01-31T02:15:23;13.6;;;3.5;;
76548;SDS011;65391;52.068;4.542;2023-01-31T02:17:48;13.6;;;3.5;;
76548;SDS011;65391;52.068;4.542;2023-01-31T02:20:24;13.6;;;3.5;;
76548;SDS011;65391;52.068;4.542;2023-01-31T02:22:39;13.3;;;3.3;;
76548;SDS011;65391;52.068;4.542;2023-01-31T02:25:24;13.3;;;3.3;;
76548;SDS011;65391;52.068;4.542;2023-01-31T02:27:36;13.3;;;3.3;;
76548;SDS011;65391;52.068;4.542;2023-01-31T02:30:06;13.3;;;3.3;;
76548;SDS011;65391;52.068;4.542;2023-01-31T02:32:27;14.8;;;4.3;;
76548;SDS011;65391;52.068;4.542;2023-01-31T02:34:44;14.8;;;4.3;;
76548;SDS011;65391;52.068;4.542;2023-01-31T02:37:15;14.8;;;4.3;;
76548;SDS011;65391;52.068;4.542;2023-01-31T02:39:37;14.8;;;4.3;;
76548;SDS011;65391;52.068;4.542;2023-01-31T02:42:04;14.8;;;4.3;;
76548;SDS011;65391;52.068;4.542;2023-01-31T02:44:26;13.4;;;5.1;;
76548;SDS011;65391;52.068;4.542;2023-01-31T02:46:50;13.4;;;5.1;;
76548;SDS011;65391;52.068;4.542;2023-01-31T02:49:16;13.4;;;5.1;;
76548;SDS011;65391;52.068;4.542;2023-01-31T02:51:41;13.4;;;5.1;;
76548;SDS011;65391;52.068;4.542;2023-01-31T02:54:09;15.3;;;4.6;;
76548;SDS011;65391;52.068;4.542;2023-01-31T02:56:29;15.3;;;4.6;;
76548;SDS011;65391;52.068;4.542;2023-01-31T02:58:54;15.3;;;4.6;;
76548;SDS011;65391;52.068;4.542;2023-01-31T03:01:21;15.3;;;4.6;;
76548;SDS011;65391;52.068;4.542;2023-01-31T03:03:43;15.4;;;4.8;;
76548;SDS011;65391;52.068;4.542;2023-01-31T03:06:11;15.4;;;4.8;;
76548;SDS011;65391;52.068;4.542;2023-01-31T03:08:33;15.4;;;4.8;;
76548;SDS011;65391;52.068;4.542;2023-01-31T03:10:59;15.4;;;4.8;;
76548;SDS011;65391;52.068;4.542;2023-01-31T03:13:32;16.6;;;5.3;;
76548;SDS011;65391;52.068;4.542;2023-01-31T03:15:54;16.6;;;5.3;;
76548;SDS011;65391;52.068;4.542;2023-01-31T03:18:15;16.6;;;5.3;;
76548;SDS011;65391;52.068;4.542;2023-01-31T03:20:41;16.6;;;5.3;;
76548;SDS011;65391;52.068;4.542;2023-01-31T03:23:05;14.9;;;4;;
76548;SDS011;65391;52.068;4.542;2023-01-31T03:25:30;14.9;;;4;;
76548;SDS011;65391;52.068;4.542;2023-01-31T03:27:54;14.9;;;4;;
76548;SDS011;65391;52.068;4.542;2023-01-31T03:30:20;14.9;;;4;;
76548;SDS011;65391;52.068;4.542;2023-01-31T03:32:44;14.5;;;4.5;;
76548;SDS011;65391;52.068;4.542;2023-01-31T03:35:08;14.5;;;4.5;;
76548;SDS011;65391;52.068;4.542;2023-01-31T03:37:39;14.5;;;4.5;;
76548;SDS011;65391;52.068;4.542;2023-01-31T03:40:00;14.5;;;4.5;;
76548;SDS011;65391;52.068;4.542;2023-01-31T03:42:25;13.5;;;3.6;;
76548;SDS011;65391;52.068;4.542;2023-01-31T03:44:50;13.5;;;3.6;;
76548;SDS011;65391;52.068;4.542;2023-01-31T03:47:15;13.5;;;3.6;;
76548;SDS011;65391;52.068;4.542;2023-01-31T03:49:38;13.5;;;3.6;;
76548;SDS011;65391;52.068;4.542;2023-01-31T03:52:04;13.5;;;3.6;;
76548;SDS011;65391;52.068;4.542;2023-01-31T03:54:30;15.1;;;3.6;;
76548;SDS011;65391;52.068;4.542;2023-01-31T03:56:55;15.1;;;3.6;;
76548;SDS011;65391;52.068;4.542;2023-01-31T03:59:19;15.1;;;3.6;;
76548;SDS011;65391;52.068;4.542;2023-01-31T04:01:45;15.1;;;3.6;;
76548;SDS011;65391;52.068;4.542;2023-01-31T04:04:10;15.4;;;3.8;;
76548;SDS011;65391;52.068;4.542;2023-01-31T04:06:33;15.4;;;3.8;;
76548;SDS011;65391;52.068;4.542;2023-01-31T04:08:59;15.4;;;3.8;;
76548;SDS011;65391;52.068;4.542;2023-01-31T04:11:24;15.4;;;3.8;;
76548;SDS011;65391;52.068;4.542;2023-01-31T04:13:48;15.4;;;3.8;;
76548;SDS011;65391;52.068;4.542;2023-01-31T04:16:13;15.4;;;3.8;;
76548;SDS011;65391;52.068;4.542;2023-01-31T04:18:38;15.4;;;3.8;;
76548;SDS011;65391;52.068;4.542;2023-01-31T04:21:04;15.4;;;3.8;;
76548;SDS011;65391;52.068;4.542;2023-01-31T04:23:28;16.2;;;4.1;;
76548;SDS011;65391;52.068;4.542;2023-01-31T04:25:53;16.2;;;4.1;;
76548;SDS011;65391;52.068;4.542;2023-01-31T04:28:18;16.2;;;4.1;;
76548;SDS011;65391;52.068;4.542;2023-01-31T04:30:43;16.2;;;4.1;;
76548;SDS011;65391;52.068;4.542;2023-01-31T04:33:08;11.6;;;2.7;;
76548;SDS011;65391;52.068;4.542;2023-01-31T04:35:33;11.6;;;2.7;;
76548;SDS011;65391;52.068;4.542;2023-01-31T04:37:58;13.4;;;2.7;;
76548;SDS011;65391;52.068;4.542;2023-01-31T04:40:23;13.4;;;2.7;;
76548;SDS011;65391;52.068;4.542;2023-01-31T04:42:48;13.4;;;2.7;;
76548;SDS011;65391;52.068;4.542;2023-01-31T04:45:13;13.4;;;2.7;;
76548;SDS011;65391;52.068;4.542;2023-01-31T04:47:38;13.4;;;2.7;;
76548;SDS011;65391;52.068;4.542;2023-01-31T04:50:04;15.4;;;3.4;;
76548;SDS011;65391;52.068;4.542;2023-01-31T04:52:28;15.4;;;3.4;;
76548;SDS011;65391;52.068;4.542;2023-01-31T04:54:53;15.4;;;3.4;;
76548;SDS011;65391;52.068;4.542;2023-01-31T04:57:18;15.4;;;3.4;;
76548;SDS011;65391;52.068;4.542;2023-01-31T04:59:43;15.1;;;3.2;;
76548;SDS011;65391;52.068;4.542;2023-01-31T05:02:08;15.1;;;3.2;;
76548;SDS011;65391;52.068;4.542;2023-01-31T05:04:33;15.1;;;3.2;;
76548;SDS011;65391;52.068;4.542;2023-01-31T05:06:58;15.1;;;3.2;;
76548;SDS011;65391;52.068;4.542;2023-01-31T05:09:23;14.8;;;3.3;;
76548;SDS011;65391;52.068;4.542;2023-01-31T05:11:48;14.8;;;3.3;;
76548;SDS011;65391;52.068;4.542;2023-01-31T05:14:13;14.8;;;3.3;;
76548;SDS011;65391;52.068;4.542;2023-01-31T05:16:38;14.8;;;3.3;;
76548;SDS011;65391;52.068;4.542;2023-01-31T05:19:03;16.2;;;3.4;;
76548;SDS011;65391;52.068;4.542;2023-01-31T05:21:28;16.2;;;3.4;;
76548;SDS011;65391;52.068;4.542;2023-01-31T05:23:53;16.2;;;3.4;;
76548;SDS011;65391;52.068;4.542;2023-01-31T05:26:18;16.2;;;3.4;;
76548;SDS011;65391;52.068;4.542;2023-01-31T05:28:43;15.6;;;3.4;;
76548;SDS011;65391;52.068;4.542;2023-01-31T05:31:11;15.6;;;3.4;;
76548;SDS011;65391;52.068;4.542;2023-01-31T05:33:33;15.6;;;3.4;;
76548;SDS011;65391;52.068;4.542;2023-01-31T05:35:59;15.6;;;3.4;;
76548;SDS011;65391;52.068;4.542;2023-01-31T05:38:23;14.2;;;3.3;;
76548;SDS011;65391;52.068;4.542;2023-01-31T05:40:48;14.2;;;3.3;;
76548;SDS011;65391;52.068;4.542;2023-01-31T05:43:13;14.2;;;3.3;;
76548;SDS011;65391;52.068;4.542;2023-01-31T05:45:38;14.2;;;3.3;;
76548;SDS011;65391;52.068;4.542;2023-01-31T05:48:04;15.6;;;3.5;;
76548;SDS011;65391;52.068;4.542;2023-01-31T05:50:28;15.6;;;3.5;;
76548;SDS011;65391;52.068;4.542;2023-01-31T05:52:54;15.6;;;3.5;;
76548;SDS011;65391;52.068;4.542;2023-01-31T05:55:18;15.6;;;3.5;;
76548;SDS011;65391;52.068;4.542;2023-01-31T05:57:43;15.6;;;3.5;;
76548;SDS011;65391;52.068;4.542;2023-01-31T06:00:09;12.8;;;2.4;;
76548;SDS011;65391;52.068;4.542;2023-01-31T06:02:33;12.8;;;2.4;;
76548;SDS011;65391;52.068;4.542;2023-01-31T06:04:58;12.8;;;2.4;;
76548;SDS011;65391;52.068;4.542;2023-01-31T06:07:23;12.8;;;2.4;;
76548;SDS011;65391;52.068;4.542;2023-01-31T06:09:48;14.1;;;2.5;;
76548;SDS011;65391;52.068;4.542;2023-01-31T06:12:13;14.1;;;2.5;;
76548;SDS011;65391;52.068;4.542;2023-01-31T06:14:38;14.1;;;2.5;;
76548;SDS011;65391;52.068;4.542;2023-01-31T06:17:03;14.1;;;2.5;;
76548;SDS011;65391;52.068;4.542;2023-01-31T06:19:29;13.5;;;2.6;;
76548;SDS011;65391;52.068;4.542;2023-01-31T06:21:53;13.5;;;2.6;;
76548;SDS011;65391;52.068;4.542;2023-01-31T06:24:18;13.5;;;2.6;;
76548;SDS011;65391;52.068;4.542;2023-01-31T06:26:43;13.5;;;2.6;;
76548;SDS011;65391;52.068;4.542;2023-01-31T06:29:08;13.5;;;3;;
76548;SDS011;65391;52.068;4.542;2023-01-31T06:31:33;13.5;;;3;;
76548;SDS011;65391;52.068;4.542;2023-01-31T06:33:58;13.5;;;3;;
76548;SDS011;65391;52.068;4.542;2023-01-31T06:36:24;13.5;;;3;;
76548;SDS011;65391;52.068;4.542;2023-01-31T06:38:49;10.8;;;2;;
76548;SDS011;65391;52.068;4.542;2023-01-31T06:41:13;10.8;;;2;;
76548;SDS011;65391;52.068;4.542;2023-01-31T06:43:38;10.8;;;2;;
76548;SDS011;65391;52.068;4.542;2023-01-31T06:46:03;10.8;;;2;;
76548;SDS011;65391;52.068;4.542;2023-01-31T06:48:28;9.7;;;1.8;;
76548;SDS011;65391;52.068;4.542;2023-01-31T06:50:53;9.7;;;1.8;;
76548;SDS011;65391;52.068;4.542;2023-01-31T06:53:18;9.7;;;1.8;;
76548;SDS011;65391;52.068;4.542;2023-01-31T06:55:43;9.7;;;1.8;;
76548;SDS011;65391;52.068;4.542;2023-01-31T06:58:08;11.2;;;1.6;;
76548;SDS011;65391;52.068;4.542;2023-01-31T07:00:33;11.2;;;1.6;;
76548;SDS011;65391;52.068;4.542;2023-01-31T07:02:58;11.2;;;1.6;;
76548;SDS011;65391;52.068;4.542;2023-01-31T07:05:24;11.2;;;1.6;;
76548;SDS011;65391;52.068;4.542;2023-01-31T07:07:49;11.2;;;1.6;;
76548;SDS011;65391;52.068;4.542;2023-01-31T07:10:14;10.3;;;1.9;;
76548;SDS011;65391;52.068;4.542;2023-01-31T07:12:39;10.3;;;1.9;;
76548;SDS011;65391;52.068;4.542;2023-01-31T07:15:04;10.3;;;1.9;;
76548;SDS011;65391;52.068;4.542;2023-01-31T07:17:28;10.3;;;1.9;;
76548;SDS011;65391;52.068;4.542;2023-01-31T07:19:53;10.2;;;2;;
76548;SDS011;65391;52.068;4.542;2023-01-31T07:22:19;10.2;;;2;;
76548;SDS011;65391;52.068;4.542;2023-01-31T07:24:44;10.2;;;2;;
76548;SDS011;65391;52.068;4.542;2023-01-31T07:27:11;10.2;;;2;;
76548;SDS011;65391;52.068;4.542;2023-01-31T07:29:33;12.6;;;3;;
76548;SDS011;65391;52.068;4.542;2023-01-31T07:31:58;12.6;;;3;;
76548;SDS011;65391;52.068;4.542;2023-01-31T07:34:24;12.6;;;3;;
76548;SDS011;65391;52.068;4.542;2023-01-31T07:36:49;12.6;;;3;;
76548;SDS011;65391;52.068;4.542;2023-01-31T07:39:14;13.3;;;2.8;;
76548;SDS011;65391;52.068;4.542;2023-01-31T07:41:39;13.3;;;2.8;;
76548;SDS011;65391;52.068;4.542;2023-01-31T07:44:04;13.3;;;2.8;;
76548;SDS011;65391;52.068;4.542;2023-01-31T07:46:29;13.3;;;2.8;;
76548;SDS011;65391;52.068;4.542;2023-01-31T07:48:54;11.5;;;2;;
76548;SDS011;65391;52.068;4.542;2023-01-31T07:51:19;11.5;;;2;;
76548;SDS011;65391;52.068;4.542;2023-01-31T07:53:44;11.5;;;2;;
76548;SDS011;65391;52.068;4.542;2023-01-31T07:56:10;11.5;;;2;;
76548;SDS011;65391;52.068;4.542;2023-01-31T07:58:34;9.6;;;1.5;;
76548;SDS011;65391;52.068;4.542;2023-01-31T08:00:59;9.6;;;1.5;;
76548;SDS011;65391;52.068;4.542;2023-01-31T08:03:26;9.6;;;1.5;;
76548;SDS011;65391;52.068;4.542;2023-01-31T08:05:49;9.6;;;1.5;;
76548;SDS011;65391;52.068;4.542;2023-01-31T08:08:14;18;;;7.3;;
76548;SDS011;65391;52.068;4.542;2023-01-31T08:10:39;18;;;7.3;;
76548;SDS011;65391;52.068;4.542;2023-01-31T08:13:04;18;;;7.3;;
76548;SDS011;65391;52.068;4.542;2023-01-31T08:15:29;18;;;7.3;;
76548;SDS011;65391;52.068;4.542;2023-01-31T08:17:54;18;;;7.3;;
76548;SDS011;65391;52.068;4.542;2023-01-31T08:20:19;10.5;;;2.8;;
76548;SDS011;65391;52.068;4.542;2023-01-31T08:22:44;10.5;;;2.8;;
76548;SDS011;65391;52.068;4.542;2023-01-31T08:25:09;10.5;;;2.8;;
76548;SDS011;65391;52.068;4.542;2023-01-31T08:27:34;10.5;;;2.8;;
76548;SDS011;65391;52.068;4.542;2023-01-31T08:29:59;12.7;;;2.5;;
76548;SDS011;65391;52.068;4.542;2023-01-31T08:32:24;12.7;;;2.5;;
76548;SDS011;65391;52.068;4.542;2023-01-31T08:34:49;12.7;;;2.5;;
76548;SDS011;65391;52.068;4.542;2023-01-31T08:37:14;12.7;;;2.5;;
76548;SDS011;65391;52.068;4.542;2023-01-31T08:39:39;15.2;;;4.4;;
76548;SDS011;65391;52.068;4.542;2023-01-31T08:42:04;15.2;;;4.4;;
76548;SDS011;65391;52.068;4.542;2023-01-31T08:44:29;15.2;;;4.4;;
76548;SDS011;65391;52.068;4.542;2023-01-31T08:46:54;15.2;;;4.4;;
76548;SDS011;65391;52.068;4.542;2023-01-31T08:49:19;11.9;;;2.5;;
76548;SDS011;65391;52.068;4.542;2023-01-31T08:51:44;11.9;;;2.5;;
76548;SDS011;65391;52.068;4.542;2023-01-31T08:54:09;11.9;;;2.5;;
76548;SDS011;65391;52.068;4.542;2023-01-31T08:56:34;11.9;;;2.5;;
76548;SDS011;65391;52.068;4.542;2023-01-31T08:58:59;10.1;;;1.9;;
76548;SDS011;65391;52.068;4.542;2023-01-31T09:01:24;10.1;;;1.9;;
76548;SDS011;65391;52.068;4.542;2023-01-31T09:03:49;10.1;;;1.9;;
76548;SDS011;65391;52.068;4.542;2023-01-31T09:06:15;10.1;;;1.9;;
76548;SDS011;65391;52.068;4.542;2023-01-31T09:08:39;10.3;;;2.4;;
76548;SDS011;65391;52.068;4.542;2023-01-31T09:11:04;10.3;;;2.4;;
76548;SDS011;65391;52.068;4.542;2023-01-31T09:13:29;10.3;;;2.4;;
76548;SDS011;65391;52.068;4.542;2023-01-31T09:15:57;10.3;;;2.4;;
76548;SDS011;65391;52.068;4.542;2023-01-31T09:18:19;11.8;;;2.5;;
76548;SDS011;65391;52.068;4.542;2023-01-31T09:20:44;11.8;;;2.5;;
76548;SDS011;65391;52.068;4.542;2023-01-31T09:23:09;11.8;;;2.5;;
76548;SDS011;65391;52.068;4.542;2023-01-31T09:25:34;11.8;;;2.5;;
76548;SDS011;65391;52.068;4.542;2023-01-31T09:27:59;11.8;;;2.5;;
76548;SDS011;65391;52.068;4.542;2023-01-31T09:30:24;13;;;2.7;;
76548;SDS011;65391;52.068;4.542;2023-01-31T09:32:49;13;;;2.7;;
76548;SDS011;65391;52.068;4.542;2023-01-31T09:35:14;13;;;2.7;;
76548;SDS011;65391;52.068;4.542;2023-01-31T09:37:39;13;;;2.7;;
76548;SDS011;65391;52.068;4.542;2023-01-31T09:40:04;10.7;;;2.4;;
76548;SDS011;65391;52.068;4.542;2023-01-31T09:42:30;10.7;;;2.4;;
76548;SDS011;65391;52.068;4.542;2023-01-31T09:44:57;10.7;;;2.4;;
76548;SDS011;65391;52.068;4.542;2023-01-31T09:47:21;10.7;;;2.4;;
76548;SDS011;65391;52.068;4.542;2023-01-31T09:49:46;14.5;;;2.7;;
76548;SDS011;65391;52.068;4.542;2023-01-31T09:52:09;14.5;;;2.7;;
76548;SDS011;65391;52.068;4.542;2023-01-31T09:54:36;14.5;;;2.7;;
76548;SDS011;65391;52.068;4.542;2023-01-31T09:57:04;14.5;;;2.7;;
76548;SDS011;65391;52.068;4.542;2023-01-31T09:59:26;12.7;;;3.7;;
76548;SDS011;65391;52.068;4.542;2023-01-31T10:01:52;12.7;;;3.7;;
76548;SDS011;65391;52.068;4.542;2023-01-31T10:04:20;12.7;;;3.7;;
76548;SDS011;65391;52.068;4.542;2023-01-31T10:06:42;12.7;;;3.7;;
76548;SDS011;65391;52.068;4.542;2023-01-31T10:09:06;15.9;;;3.5;;
76548;SDS011;65391;52.068;4.542;2023-01-31T10:11:31;15.9;;;3.5;;
76548;SDS011;65391;52.068;4.542;2023-01-31T10:13:55;15.9;;;3.5;;
76548;SDS011;65391;52.068;4.542;2023-01-31T10:16:22;15.9;;;3.5;;
76548;SDS011;65391;52.068;4.542;2023-01-31T10:18:45;14.5;;;3;;
76548;SDS011;65391;52.068;4.542;2023-01-31T10:21:10;14.5;;;3;;
76548;SDS011;65391;52.068;4.542;2023-01-31T10:23:35;14.5;;;3;;
76548;SDS011;65391;52.068;4.542;2023-01-31T10:26:00;14.5;;;3;;
76548;SDS011;65391;52.068;4.542;2023-01-31T10:28:26;15.9;;;3.2;;
76548;SDS011;65391;52.068;4.542;2023-01-31T10:30:52;15.9;;;3.2;;
76548;SDS011;65391;52.068;4.542;2023-01-31T10:33:20;15.9;;;3.2;;
76548;SDS011;65391;52.068;4.542;2023-01-31T10:35:39;15.9;;;3.2;;
76548;SDS011;65391;52.068;4.542;2023-01-31T10:38:06;15.9;;;3.2;;
76548;SDS011;65391;52.068;4.542;2023-01-31T10:40:31;13.2;;;3;;
76548;SDS011;65391;52.068;4.542;2023-01-31T10:42:57;13.2;;;3;;
76548;SDS011;65391;52.068;4.542;2023-01-31T10:45:20;13.2;;;3;;
76548;SDS011;65391;52.068;4.542;2023-01-31T10:47:48;13.2;;;3;;
76548;SDS011;65391;52.068;4.542;2023-01-31T10:50:12;13.3;;;2.7;;
76548;SDS011;65391;52.068;4.542;2023-01-31T10:52:42;13.3;;;2.7;;
76548;SDS011;65391;52.068;4.542;2023-01-31T10:55:04;13.3;;;2.7;;
76548;SDS011;65391;52.068;4.542;2023-01-31T10:57:24;13.3;;;2.7;;
76548;SDS011;65391;52.068;4.542;2023-01-31T10:59:49;13.7;;;2.6;;
76548;SDS011;65391;52.068;4.542;2023-01-31T11:02:18;13.7;;;2.6;;
76548;SDS011;65391;52.068;4.542;2023-01-31T11:04:40;13.7;;;2.6;;
76548;SDS011;65391;52.068;4.542;2023-01-31T11:07:04;13.7;;;2.6;;
76548;SDS011;65391;52.068;4.542;2023-01-31T11:09:31;13.4;;;2.5;;
76548;SDS011;65391;52.068;4.542;2023-01-31T11:11:55;13.4;;;2.5;;
76548;SDS011;65391;52.068;4.542;2023-01-31T11:14:19;13.4;;;2.5;;
76548;SDS011;65391;52.068;4.542;2023-01-31T11:16:44;13.4;;;2.5;;
76548;SDS011;65391;52.068;4.542;2023-01-31T11:19:14;12.2;;;2.4;;
76548;SDS011;65391;52.068;4.542;2023-01-31T11:21:34;12.2;;;2.4;;
76548;SDS011;65391;52.068;4.542;2023-01-31T11:24:01;12.2;;;2.4;;
76548;SDS011;65391;52.068;4.542;2023-01-31T11:26:26;12.2;;;2.4;;
76548;SDS011;65391;52.068;4.542;2023-01-31T11:28:49;12.8;;;2.2;;
76548;SDS011;65391;52.068;4.542;2023-01-31T11:31:16;12.8;;;2.2;;
76548;SDS011;65391;52.068;4.542;2023-01-31T11:33:41;12.8;;;2.2;;
76548;SDS011;65391;52.068;4.542;2023-01-31T11:36:06;12.8;;;2.2;;
76548;SDS011;65391;52.068;4.542;2023-01-31T11:38:29;12.9;;;2.5;;
76548;SDS011;65391;52.068;4.542;2023-01-31T11:40:54;12.9;;;2.5;;
76548;SDS011;65391;52.068;4.542;2023-01-31T11:43:23;12.9;;;2.5;;
76548;SDS011;65391;52.068;4.542;2023-01-31T11:45:45;12.9;;;2.5;;
76548;SDS011;65391;52.068;4.542;2023-01-31T11:48:16;12.9;;;2.5;;
76548;SDS011;65391;52.068;4.542;2023-01-31T11:50:36;15;;;3.2;;
76548;SDS011;65391;52.068;4.542;2023-01-31T11:53:00;15;;;3.2;;
76548;SDS011;65391;52.068;4.542;2023-01-31T11:55:24;15;;;3.2;;
76548;SDS011;65391;52.068;4.542;2023-01-31T11:57:53;15;;;3.2;;
76548;SDS011;65391;52.068;4.542;2023-01-31T12:00:19;14.8;;;2.9;;
76548;SDS011;65391;52.068;4.542;2023-01-31T12:02:39;14.8;;;2.9;;
76548;SDS011;65391;52.068;4.542;2023-01-31T12:05:09;14.8;;;2.9;;
76548;SDS011;65391;52.068;4.542;2023-01-31T12:07:31;14.8;;;2.9;;
76548;SDS011;65391;52.068;4.542;2023-01-31T12:09:54;13.4;;;3;;
76548;SDS011;65391;52.068;4.542;2023-01-31T12:12:22;13.4;;;3;;
76548;SDS011;65391;52.068;4.542;2023-01-31T12:14:44;13.4;;;3;;
76548;SDS011;65391;52.068;4.542;2023-01-31T12:17:10;13.4;;;3;;
76548;SDS011;65391;52.068;4.542;2023-01-31T12:19:41;11.4;;;2;;
76548;SDS011;65391;52.068;4.542;2023-01-31T12:22:01;11.4;;;2;;
76548;SDS011;65391;52.068;4.542;2023-01-31T12:24:31;11.4;;;2;;
76548;SDS011;65391;52.068;4.542;2023-01-31T12:26:51;11.4;;;2;;
76548;SDS011;65391;52.068;4.542;2023-01-31T12:29:22;9.5;;;2.3;;
76548;SDS011;65391;52.068;4.542;2023-01-31T12:31:47;9.5;;;2.3;;
76548;SDS011;65391;52.068;4.542;2023-01-31T12:34:13;9.5;;;2.3;;
76548;SDS011;65391;52.068;4.542;2023-01-31T12:36:36;9.5;;;2.3;;
76548;SDS011;65391;52.068;4.542;2023-01-31T12:39:01;13.4;;;2.6;;
76548;SDS011;65391;52.068;4.542;2023-01-31T12:41:25;13.4;;;2.6;;
76548;SDS011;65391;52.068;4.542;2023-01-31T12:43:54;13.4;;;2.6;;
76548;SDS011;65391;52.068;4.542;2023-01-31T12:46:11;13.4;;;2.6;;
76548;SDS011;65391;52.068;4.542;2023-01-31T12:48:42;12.9;;;3.5;;
76548;SDS011;65391;52.068;4.542;2023-01-31T12:51:03;12.9;;;3.5;;
76548;SDS011;65391;52.068;4.542;2023-01-31T12:53:31;12.9;;;3.5;;
76548;SDS011;65391;52.068;4.542;2023-01-31T12:55:54;12.9;;;3.5;;
76548;SDS011;65391;52.068;4.542;2023-01-31T12:58:22;12.9;;;3.5;;
76548;SDS011;65391;52.068;4.542;2023-01-31T13:00:41;12.4;;;2.4;;
76548;SDS011;65391;52.068;4.542;2023-01-31T13:03:14;12.4;;;2.4;;
76548;SDS011;65391;52.068;4.542;2023-01-31T13:05:31;12.4;;;2.4;;
76548;SDS011;65391;52.068;4.542;2023-01-31T13:07:56;12.4;;;2.4;;
76548;SDS011;65391;52.068;4.542;2023-01-31T13:10:27;12.2;;;2.8;;
76548;SDS011;65391;52.068;4.542;2023-01-31T13:12:44;12.2;;;2.8;;
76548;SDS011;65391;52.068;4.542;2023-01-31T13:15:15;12.2;;;2.8;;
76548;SDS011;65391;52.068;4.542;2023-01-31T13:17:37;12.2;;;2.8;;
76548;SDS011;65391;52.068;4.542;2023-01-31T13:20:01;15.9;;;4;;
76548;SDS011;65391;52.068;4.542;2023-01-31T13:22:26;15.9;;;4;;
76548;SDS011;65391;52.068;4.542;2023-01-31T13:24:52;15.9;;;4;;
76548;SDS011;65391;52.068;4.542;2023-01-31T13:27:16;15.9;;;4;;
76548;SDS011;65391;52.068;4.542;2023-01-31T13:29:40;14.6;;;2.1;;
76548;SDS011;65391;52.068;4.542;2023-01-31T13:32:07;14.6;;;2.1;;
76548;SDS011;65391;52.068;4.542;2023-01-31T13:34:33;14.6;;;2.1;;
76548;SDS011;65391;52.068;4.542;2023-01-31T13:36:56;14.6;;;2.1;;
76548;SDS011;65391;52.068;4.542;2023-01-31T13:39:20;13.6;;;3.1;;
76548;SDS011;65391;52.068;4.542;2023-01-31T13:41:44;13.6;;;3.1;;
76548;SDS011;65391;52.068;4.542;2023-01-31T13:44:11;13.6;;;3.1;;
76548;SDS011;65391;52.068;4.542;2023-01-31T13:46:35;13.6;;;3.1;;
76548;SDS011;65391;52.068;4.542;2023-01-31T13:49:02;13.6;;;2.2;;
76548;SDS011;65391;52.068;4.542;2023-01-31T13:51:27;13.6;;;2.2;;
76548;SDS011;65391;52.068;4.542;2023-01-31T13:53:53;13.6;;;2.2;;
76548;SDS011;65391;52.068;4.542;2023-01-31T13:56:19;13.6;;;2.2;;
76548;SDS011;65391;52.068;4.542;2023-01-31T13:58:39;12.4;;;2.8;;
76548;SDS011;65391;52.068;4.542;2023-01-31T14:01:06;12.4;;;2.8;;
76548;SDS011;65391;52.068;4.542;2023-01-31T14:03:29;12.4;;;2.8;;
76548;SDS011;65391;52.068;4.542;2023-01-31T14:05:56;12.4;;;2.8;;
76548;SDS011;65391;52.068;4.542;2023-01-31T14:08:37;12.4;;;2.8;;
76548;SDS011;65391;52.068;4.542;2023-01-31T14:10:44;14.5;;;2.6;;
76548;SDS011;65391;52.068;4.542;2023-01-31T14:13:42;14.5;;;2.6;;
76548;SDS011;65391;52.068;4.542;2023-01-31T14:15:50;14.5;;;2.6;;
76548;SDS011;65391;52.068;4.542;2023-01-31T14:18:00;14.5;;;2.6;;
76548;SDS011;65391;52.068;4.542;2023-01-31T14:20:25;16;;;3.1;;
76548;SDS011;65391;52.068;4.542;2023-01-31T14:23:27;16;;;3.1;;
76548;SDS011;65391;52.068;4.542;2023-01-31T14:25:14;16;;;3.1;;
76548;SDS011;65391;52.068;4.542;2023-01-31T14:27:42;16;;;3.1;;
76548;SDS011;65391;52.068;4.542;2023-01-31T14:30:18;12.9;;;2.2;;
76548;SDS011;65391;52.068;4.542;2023-01-31T14:32:32;12.9;;;2.2;;
76548;SDS011;65391;52.068;4.542;2023-01-31T14:34:54;12.9;;;2.2;;
76548;SDS011;65391;52.068;4.542;2023-01-31T14:37:27;12.9;;;2.2;;
76548;SDS011;65391;52.068;4.542;2023-01-31T14:39:53;9.9;;;1.9;;
76548;SDS011;65391;52.068;4.542;2023-01-31T14:42:49;9.9;;;1.9;;
76548;SDS011;65391;52.068;4.542;2023-01-31T14:44:40;9.9;;;1.9;;
76548;SDS011;65391;52.068;4.542;2023-01-31T14:47:06;9.9;;;1.9;;
76548;SDS011;65391;52.068;4.542;2023-01-31T14:49:49;4.6;;;1.5;;
76548;SDS011;65391;52.068;4.542;2023-01-31T14:51:57;4.6;;;1.5;;